Terminal Aerodrome Forecast
Issued by NWS

Home | Current Version | Previous Version | Text Only | Print | Product List | Glossary On
Versions: 1 2 3 4 5 6 7 8 9 10 11 12 13 14 15 16 17
000
FTUS46 KMFR 301739
TAFRBG
TAF
KRBG 301739Z 3018/3118 29004KT P6SM -RA BKN023 BKN029 OVC045
     FM302100 33010KT P6SM -SHRA SCT025 BKN040
     FM310300 36003KT P6SM BKN040
     FM310800 00000KT P6SM BKN020 OVC035=

USA.gov is the U.S. government's official web portal to all federal, state and local government web resources and services.